sensor_id;sensor_type;location;lat;lon;timestamp;pressure;altitude;pressure_sealevel;temperature;humidity
68822;BME280;55834;50.870;4.606;2022-09-12T00:01:08;100983.97;;;14.71;51.57
68822;BME280;55834;50.870;4.606;2022-09-12T00:03:34;100984.16;;;14.66;52.18
68822;BME280;55834;50.870;4.606;2022-09-12T00:06:06;100985.66;;;14.52;52.92
68822;BME280;55834;50.870;4.606;2022-09-12T00:08:32;100991.91;;;14.51;53.53
68822;BME280;55834;50.870;4.606;2022-09-12T00:10:57;100987.16;;;14.59;52.58
68822;BME280;55834;50.870;4.606;2022-09-12T00:13:22;100989.59;;;14.63;52.25
68822;BME280;55834;50.870;4.606;2022-09-12T00:15:48;100993.78;;;14.69;52.42
68822;BME280;55834;50.870;4.606;2022-09-12T00:18:15;100987.03;;;14.62;51.64
68822;BME280;55834;50.870;4.606;2022-09-12T00:20:45;100985.06;;;14.45;53.06
68822;BME280;55834;50.870;4.606;2022-09-12T00:23:11;100983.97;;;13.82;56.10
68822;BME280;55834;50.870;4.606;2022-09-12T00:25:45;100976.63;;;13.65;56.25
68822;BME280;55834;50.870;4.606;2022-09-12T00:28:12;100983.31;;;13.98;55.88
68822;BME280;55834;50.870;4.606;2022-09-12T00:30:46;100990.00;;;14.09;54.59
68822;BME280;55834;50.870;4.606;2022-09-12T00:33:13;100987.97;;;14.15;54.49
68822;BME280;55834;50.870;4.606;2022-09-12T00:35:43;100979.31;;;14.10;53.94
68822;BME280;55834;50.870;4.606;2022-09-12T00:38:10;100975.50;;;14.17;53.89
68822;BME280;55834;50.870;4.606;2022-09-12T00:40:35;100967.97;;;14.29;53.92
68822;BME280;55834;50.870;4.606;2022-09-12T00:43:00;100961.50;;;14.36;53.16
68822;BME280;55834;50.870;4.606;2022-09-12T00:45:27;100965.75;;;14.40;53.91
68822;BME280;55834;50.870;4.606;2022-09-12T00:47:54;100961.28;;;14.40;53.15
68822;BME280;55834;50.870;4.606;2022-09-12T00:50:20;100965.69;;;14.41;52.92
68822;BME280;55834;50.870;4.606;2022-09-12T00:52:51;100966.53;;;14.20;53.08
68822;BME280;55834;50.870;4.606;2022-09-12T00:55:27;100966.66;;;14.17;53.11
68822;BME280;55834;50.870;4.606;2022-09-12T00:58:00;100958.41;;;14.25;53.47
68822;BME280;55834;50.870;4.606;2022-09-12T01:00:27;100955.53;;;14.29;53.32
68822;BME280;55834;50.870;4.606;2022-09-12T01:02:59;100950.44;;;14.25;53.34
68822;BME280;55834;50.870;4.606;2022-09-12T01:05:27;100948.56;;;14.27;53.21
68822;BME280;55834;50.870;4.606;2022-09-12T01:07:53;100951.97;;;14.30;53.21
68822;BME280;55834;50.870;4.606;2022-09-12T01:10:20;100945.84;;;14.28;53.32
68822;BME280;55834;50.870;4.606;2022-09-12T01:12:46;100947.56;;;14.29;53.06
68822;BME280;55834;50.870;4.606;2022-09-12T01:15:12;100941.69;;;14.21;52.45
68822;BME280;55834;50.870;4.606;2022-09-12T01:26:19;100937.34;;;13.98;54.09
68822;BME280;55834;50.870;4.606;2022-09-12T01:31:45;100942.94;;;13.90;53.09
68822;BME280;55834;50.870;4.606;2022-09-12T01:34:24;100937.22;;;13.77;53.24
68822;BME280;55834;50.870;4.606;2022-09-12T01:37:20;100928.97;;;13.85;53.89
68822;BME280;55834;50.870;4.606;2022-09-12T01:42:29;100920.88;;;13.88;53.50
68822;BME280;55834;50.870;4.606;2022-09-12T01:45:25;100916.31;;;13.92;53.38
68822;BME280;55834;50.870;4.606;2022-09-12T01:47:59;100916.31;;;13.92;53.11
68822;BME280;55834;50.870;4.606;2022-09-12T01:50:31;100915.94;;;13.79;53.00
68822;BME280;55834;50.870;4.606;2022-09-12T01:53:08;100901.69;;;13.82;53.96
68822;BME280;55834;50.870;4.606;2022-09-12T01:56:01;100897.00;;;13.88;54.12
68822;BME280;55834;50.870;4.606;2022-09-12T01:58:44;100898.56;;;13.72;53.54
68822;BME280;55834;50.870;4.606;2022-09-12T02:01:23;100903.94;;;13.69;54.04
68822;BME280;55834;50.870;4.606;2022-09-12T02:04:16;100895.81;;;13.73;54.14
68822;BME280;55834;50.870;4.606;2022-09-12T02:06:48;100901.75;;;13.80;53.94
68822;BME280;55834;50.870;4.606;2022-09-12T02:12:10;100891.94;;;13.82;53.57
68822;BME280;55834;50.870;4.606;2022-09-12T02:14:41;100892.09;;;13.77;53.55
68822;BME280;55834;50.870;4.606;2022-09-12T02:17:20;100898.56;;;13.72;53.83
68822;BME280;55834;50.870;4.606;2022-09-12T02:19:51;100897.66;;;13.71;53.77
68822;BME280;55834;50.870;4.606;2022-09-12T02:22:19;100883.50;;;13.72;53.69
68822;BME280;55834;50.870;4.606;2022-09-12T02:24:48;100896.44;;;13.58;53.13
68822;BME280;55834;50.870;4.606;2022-09-12T02:27:26;100893.97;;;13.52;53.79
68822;BME280;55834;50.870;4.606;2022-09-12T02:29:54;100903.44;;;13.59;53.78
68822;BME280;55834;50.870;4.606;2022-09-12T02:32:29;100897.09;;;13.63;54.00
68822;BME280;55834;50.870;4.606;2022-09-12T02:40:03;100893.03;;;13.53;53.44
68822;BME280;55834;50.870;4.606;2022-09-12T02:42:28;100890.31;;;13.56;53.59
68822;BME280;55834;50.870;4.606;2022-09-12T02:44:55;100886.88;;;13.52;53.14
68822;BME280;55834;50.870;4.606;2022-09-12T02:47:26;100890.63;;;13.47;53.49
68822;BME280;55834;50.870;4.606;2022-09-12T02:49:54;100884.41;;;13.48;53.57
68822;BME280;55834;50.870;4.606;2022-09-12T02:52:20;100888.84;;;13.47;53.73
68822;BME280;55834;50.870;4.606;2022-09-12T02:54:46;100886.47;;;13.40;53.84
68822;BME280;55834;50.870;4.606;2022-09-12T02:57:19;100883.34;;;13.28;54.47
68822;BME280;55834;50.870;4.606;2022-09-12T02:59:46;100885.97;;;13.30;54.27
68822;BME280;55834;50.870;4.606;2022-09-12T03:05:14;100884.88;;;13.36;54.73
68822;BME280;55834;50.870;4.606;2022-09-12T03:16:02;100875.19;;;13.35;54.08
68822;BME280;55834;50.870;4.606;2022-09-12T03:18:44;100870.78;;;13.33;54.11
68822;BME280;55834;50.870;4.606;2022-09-12T03:21:33;100870.75;;;13.35;54.82
68822;BME280;55834;50.870;4.606;2022-09-12T03:27:12;100869.34;;;13.25;53.95
68822;BME280;55834;50.870;4.606;2022-09-12T03:29:42;100873.19;;;12.93;55.46
68822;BME280;55834;50.870;4.606;2022-09-12T03:32:08;100867.63;;;12.75;55.33
68822;BME280;55834;50.870;4.606;2022-09-12T03:34:34;100859.19;;;12.89;55.89
68822;BME280;55834;50.870;4.606;2022-09-12T03:36:59;100860.66;;;12.98;55.91
68822;BME280;55834;50.870;4.606;2022-09-12T03:39:25;100857.13;;;12.97;55.37
68822;BME280;55834;50.870;4.606;2022-09-12T03:41:51;100861.38;;;13.01;55.90
68822;BME280;55834;50.870;4.606;2022-09-12T03:44:18;100861.16;;;13.07;55.13
68822;BME280;55834;50.870;4.606;2022-09-12T03:46:43;100861.97;;;13.09;55.10
68822;BME280;55834;50.870;4.606;2022-09-12T03:49:10;100861.13;;;13.09;54.40
68822;BME280;55834;50.870;4.606;2022-09-12T03:51:36;100853.16;;;13.09;54.72
68822;BME280;55834;50.870;4.606;2022-09-12T03:54:02;100845.44;;;13.03;55.15
68822;BME280;55834;50.870;4.606;2022-09-12T03:56:28;100849.00;;;13.02;54.60
68822;BME280;55834;50.870;4.606;2022-09-12T03:58:53;100849.09;;;12.99;54.41
68822;BME280;55834;50.870;4.606;2022-09-12T04:01:19;100855.28;;;12.99;55.21
68822;BME280;55834;50.870;4.606;2022-09-12T04:03:47;100848.94;;;13.03;55.04
68822;BME280;55834;50.870;4.606;2022-09-12T04:06:15;100847.97;;;13.06;54.60
68822;BME280;55834;50.870;4.606;2022-09-12T04:08:42;100856.09;;;13.01;54.00
68822;BME280;55834;50.870;4.606;2022-09-12T04:11:12;100847.50;;;12.95;54.47
68822;BME280;55834;50.870;4.606;2022-09-12T04:13:39;100842.94;;;12.98;54.54
68822;BME280;55834;50.870;4.606;2022-09-12T04:16:05;100844.66;;;12.99;54.50
68822;BME280;55834;50.870;4.606;2022-09-12T04:18:32;100840.31;;;12.98;54.40
68822;BME280;55834;50.870;4.606;2022-09-12T04:20:58;100842.91;;;13.00;54.57
68822;BME280;55834;50.870;4.606;2022-09-12T04:23:23;100837.66;;;12.98;54.73
68822;BME280;55834;50.870;4.606;2022-09-12T04:25:53;100844.22;;;12.88;53.80
68822;BME280;55834;50.870;4.606;2022-09-12T04:28:19;100840.28;;;12.75;54.89
68822;BME280;55834;50.870;4.606;2022-09-12T04:30:44;100838.72;;;12.69;54.91
68822;BME280;55834;50.870;4.606;2022-09-12T04:33:09;100837.84;;;12.69;55.50
68822;BME280;55834;50.870;4.606;2022-09-12T04:35:35;100842.94;;;12.75;55.05
68822;BME280;55834;50.870;4.606;2022-09-12T04:38:00;100841.94;;;12.77;55.08
68822;BME280;55834;50.870;4.606;2022-09-12T04:40:28;100836.59;;;12.79;54.91
68822;BME280;55834;50.870;4.606;2022-09-12T04:42:53;100840.78;;;12.84;55.17
68822;BME280;55834;50.870;4.606;2022-09-12T04:45:20;100837.25;;;12.85;54.79
68822;BME280;55834;50.870;4.606;2022-09-12T04:47:45;100836.34;;;12.85;55.05
68822;BME280;55834;50.870;4.606;2022-09-12T04:50:11;100834.63;;;12.84;54.70
68822;BME280;55834;50.870;4.606;2022-09-12T04:52:36;100832.19;;;12.79;54.64
68822;BME280;55834;50.870;4.606;2022-09-12T04:55:01;100832.47;;;12.70;54.39
68822;BME280;55834;50.870;4.606;2022-09-12T04:57:27;100839.25;;;12.52;54.74
68822;BME280;55834;50.870;4.606;2022-09-12T04:59:52;100841.09;;;12.50;55.71
68822;BME280;55834;50.870;4.606;2022-09-12T05:02:17;100839.06;;;12.58;55.65
68822;BME280;55834;50.870;4.606;2022-09-12T05:04:43;100835.34;;;12.64;55.35
68822;BME280;55834;50.870;4.606;2022-09-12T05:07:08;100833.44;;;12.68;55.36
68822;BME280;55834;50.870;4.606;2022-09-12T05:09:33;100838.75;;;12.68;54.79
68822;BME280;55834;50.870;4.606;2022-09-12T05:11:59;100831.81;;;12.65;54.92
68822;BME280;55834;50.870;4.606;2022-09-12T05:14:25;100838.75;;;12.41;54.72
68822;BME280;55834;50.870;4.606;2022-09-12T05:16:50;100830.50;;;12.25;57.04
68822;BME280;55834;50.870;4.606;2022-09-12T05:19:15;100840.88;;;12.31;56.52
68822;BME280;55834;50.870;4.606;2022-09-12T05:21:41;100841.53;;;12.38;56.08
68822;BME280;55834;50.870;4.606;2022-09-12T05:24:06;100842.94;;;12.48;55.96
68822;BME280;55834;50.870;4.606;2022-09-12T05:26:32;100841.88;;;12.54;55.73
68822;BME280;55834;50.870;4.606;2022-09-12T05:28:57;100846.13;;;12.59;55.39
68822;BME280;55834;50.870;4.606;2022-09-12T05:31:24;100852.47;;;12.54;54.85
68822;BME280;55834;50.870;4.606;2022-09-12T05:33:51;100846.50;;;12.47;54.93
68822;BME280;55834;50.870;4.606;2022-09-12T05:36:19;100850.78;;;12.51;55.31
68822;BME280;55834;50.870;4.606;2022-09-12T05:38:46;100852.41;;;12.55;55.39
68822;BME280;55834;50.870;4.606;2022-09-12T05:41:17;100851.34;;;12.61;55.87
68822;BME280;55834;50.870;4.606;2022-09-12T05:43:43;100854.84;;;12.61;55.14
68822;BME280;55834;50.870;4.606;2022-09-12T05:46:14;100859.41;;;12.58;54.89
68822;BME280;55834;50.870;4.606;2022-09-12T05:48:41;100858.22;;;12.40;55.61
68822;BME280;55834;50.870;4.606;2022-09-12T05:51:09;100859.72;;;12.47;55.96
68822;BME280;55834;50.870;4.606;2022-09-12T05:53:36;100864.81;;;12.53;55.66
68822;BME280;55834;50.870;4.606;2022-09-12T05:56:06;100871.72;;;12.59;55.98
68822;BME280;55834;50.870;4.606;2022-09-12T05:58:33;100872.41;;;12.66;55.97
68822;BME280;55834;50.870;4.606;2022-09-12T06:01:04;100868.78;;;12.68;56.23
68822;BME280;55834;50.870;4.606;2022-09-12T06:03:31;100872.06;;;12.75;56.08
68822;BME280;55834;50.870;4.606;2022-09-12T06:06:00;100877.97;;;12.83;55.81
68822;BME280;55834;50.870;4.606;2022-09-12T06:08:26;100872.56;;;12.86;55.78
68822;BME280;55834;50.870;4.606;2022-09-12T06:10:57;100866.31;;;12.87;55.55
68822;BME280;55834;50.870;4.606;2022-09-12T06:13:23;100870.13;;;12.80;55.17
68822;BME280;55834;50.870;4.606;2022-09-12T06:15:49;100870.38;;;12.72;56.04
68822;BME280;55834;50.870;4.606;2022-09-12T06:18:14;100875.47;;;12.78;56.17
68822;BME280;55834;50.870;4.606;2022-09-12T06:20:39;100871.41;;;12.93;56.14
68822;BME280;55834;50.870;4.606;2022-09-12T06:23:05;100874.28;;;13.10;55.90
68822;BME280;55834;50.870;4.606;2022-09-12T06:25:30;100864.88;;;13.27;55.74
68822;BME280;55834;50.870;4.606;2022-09-12T06:27:55;100872.00;;;13.48;55.43
68822;BME280;55834;50.870;4.606;2022-09-12T06:30:20;100866.75;;;13.70;55.50
68822;BME280;55834;50.870;4.606;2022-09-12T06:32:46;100865.84;;;13.93;55.45
68822;BME280;55834;50.870;4.606;2022-09-12T06:35:11;100862.16;;;14.18;54.97
68822;BME280;55834;50.870;4.606;2022-09-12T06:37:37;100860.47;;;14.37;54.50
68822;BME280;55834;50.870;4.606;2022-09-12T06:40:03;100852.09;;;14.48;54.14
68822;BME280;55834;50.870;4.606;2022-09-12T06:42:28;100854.81;;;14.67;53.99
68822;BME280;55834;50.870;4.606;2022-09-12T06:44:54;100856.94;;;14.79;54.16
68822;BME280;55834;50.870;4.606;2022-09-12T06:47:19;100861.28;;;15.01;53.95
68822;BME280;55834;50.870;4.606;2022-09-12T06:49:45;100853.50;;;15.17;54.18
68822;BME280;55834;50.870;4.606;2022-09-12T06:52:10;100855.34;;;15.35;54.25
68822;BME280;55834;50.870;4.606;2022-09-12T06:54:35;100855.69;;;15.46;54.62
68822;BME280;55834;50.870;4.606;2022-09-12T06:57:01;100857.91;;;15.55;54.81
68822;BME280;55834;50.870;4.606;2022-09-12T06:59:26;100854.59;;;15.69;54.64
68822;BME280;55834;50.870;4.606;2022-09-12T07:01:51;100857.38;;;15.85;54.24
68822;BME280;55834;50.870;4.606;2022-09-12T07:04:17;100857.25;;;16.06;54.08
68822;BME280;55834;50.870;4.606;2022-09-12T07:06:42;100845.59;;;16.08;53.65
68822;BME280;55834;50.870;4.606;2022-09-12T07:11:37;100840.00;;;16.32;53.61
68822;BME280;55834;50.870;4.606;2022-09-12T07:14:04;100840.72;;;16.53;52.78
68822;BME280;55834;50.870;4.606;2022-09-12T07:16:30;100847.91;;;16.68;53.03
68822;BME280;55834;50.870;4.606;2022-09-12T07:18:58;100847.81;;;16.69;52.76
68822;BME280;55834;50.870;4.606;2022-09-12T07:21:24;100856.63;;;16.54;53.85
68822;BME280;55834;50.870;4.606;2022-09-12T07:23:50;100851.97;;;16.75;53.54
68822;BME280;55834;50.870;4.606;2022-09-12T07:26:23;100853.44;;;16.98;52.98
68822;BME280;55834;50.870;4.606;2022-09-12T07:28:52;100847.22;;;17.15;52.98
68822;BME280;55834;50.870;4.606;2022-09-12T07:31:20;100848.63;;;17.22;52.76
68822;BME280;55834;50.870;4.606;2022-09-12T07:33:46;100839.25;;;17.31;52.96
68822;BME280;55834;50.870;4.606;2022-09-12T07:36:15;100838.13;;;17.19;53.37
68822;BME280;55834;50.870;4.606;2022-09-12T07:38:42;100827.56;;;17.00;54.53
68822;BME280;55834;50.870;4.606;2022-09-12T07:41:16;100837.06;;;17.22;53.77
68822;BME280;55834;50.870;4.606;2022-09-12T07:43:42;100828.75;;;17.44;53.71
68822;BME280;55834;50.870;4.606;2022-09-12T07:46:08;100828.50;;;17.48;52.79
68822;BME280;55834;50.870;4.606;2022-09-12T07:48:34;100825.72;;;17.66;53.39
68822;BME280;55834;50.870;4.606;2022-09-12T07:51:00;100826.94;;;17.92;52.91
68822;BME280;55834;50.870;4.606;2022-09-12T07:53:30;100832.84;;;17.97;52.42
68822;BME280;55834;50.870;4.606;2022-09-12T07:55:57;100827.50;;;18.13;51.75
68822;BME280;55834;50.870;4.606;2022-09-12T07:58:23;100836.22;;;18.31;51.70
68822;BME280;55834;50.870;4.606;2022-09-12T08:00:49;100838.94;;;18.45;50.88
68822;BME280;55834;50.870;4.606;2022-09-12T08:03:15;100837.56;;;18.54;50.48
68822;BME280;55834;50.870;4.606;2022-09-12T08:05:40;100831.97;;;18.73;50.53
68822;BME280;55834;50.870;4.606;2022-09-12T08:08:07;100838.44;;;18.83;50.30
68822;BME280;55834;50.870;4.606;2022-09-12T08:10:32;100833.75;;;18.72;50.14
68822;BME280;55834;50.870;4.606;2022-09-12T08:12:58;100833.69;;;18.74;50.62
68822;BME280;55834;50.870;4.606;2022-09-12T08:15:23;100835.84;;;18.53;50.94
68822;BME280;55834;50.870;4.606;2022-09-12T08:17:49;100848.09;;;18.71;50.30
68822;BME280;55834;50.870;4.606;2022-09-12T08:20:14;100843.34;;;18.90;49.80
68822;BME280;55834;50.870;4.606;2022-09-12T08:22:40;100841.91;;;18.99;49.59
68822;BME280;55834;50.870;4.606;2022-09-12T08:25:05;100825.94;;;19.12;49.65
68822;BME280;55834;50.870;4.606;2022-09-12T08:27:31;100825.19;;;19.24;49.61
68822;BME280;55834;50.870;4.606;2022-09-12T08:29:56;100832.16;;;19.27;49.04
68822;BME280;55834;50.870;4.606;2022-09-12T08:32:21;100840.13;;;19.28;48.39
68822;BME280;55834;50.870;4.606;2022-09-12T08:34:47;100829.22;;;19.31;48.04
68822;BME280;55834;50.870;4.606;2022-09-12T08:37:12;100832.06;;;19.43;48.30
68822;BME280;55834;50.870;4.606;2022-09-12T08:39:37;100833.50;;;19.48;48.55
68822;BME280;55834;50.870;4.606;2022-09-12T08:42:04;100828.78;;;19.52;47.94
68822;BME280;55834;50.870;4.606;2022-09-12T08:47:37;100830.47;;;18.22;50.27
68822;BME280;55834;50.870;4.606;2022-09-12T08:53:03;100823.75;;;18.45;49.01
68822;BME280;55834;50.870;4.606;2022-09-12T08:55:36;100825.09;;;18.97;49.66
68822;BME280;55834;50.870;4.606;2022-09-12T08:58:21;100827.50;;;19.02;47.47
68822;BME280;55834;50.870;4.606;2022-09-12T09:01:07;100827.66;;;19.27;48.91
68822;BME280;55834;50.870;4.606;2022-09-12T09:12:25;100825.06;;;19.81;46.51
68822;BME280;55834;50.870;4.606;2022-09-12T09:17:54;100815.44;;;18.94;46.49
68822;BME280;55834;50.870;4.606;2022-09-12T09:23:05;100809.88;;;19.68;46.30
68822;BME280;55834;50.870;4.606;2022-09-12T09:25:52;100804.59;;;20.08;44.66
68822;BME280;55834;50.870;4.606;2022-09-12T09:28:45;100808.09;;;20.35;43.99
68822;BME280;55834;50.870;4.606;2022-09-12T09:31:18;100810.84;;;19.40;45.50
68822;BME280;55834;50.870;4.606;2022-09-12T09:33:48;100794.94;;;20.05;46.20
68822;BME280;55834;50.870;4.606;2022-09-12T09:36:42;100798.53;;;20.31;44.00
68822;BME280;55834;50.870;4.606;2022-09-12T09:42:16;100795.09;;;20.55;42.86
68822;BME280;55834;50.870;4.606;2022-09-12T09:44:43;100794.25;;;20.41;44.10
68822;BME280;55834;50.870;4.606;2022-09-12T09:47:11;100791.72;;;20.65;42.90
68822;BME280;55834;50.870;4.606;2022-09-12T09:49:37;100790.28;;;21.11;42.74
68822;BME280;55834;50.870;4.606;2022-09-12T09:52:05;100794.03;;;20.32;42.21
68822;BME280;55834;50.870;4.606;2022-09-12T09:54:45;100784.16;;;20.45;42.52
68822;BME280;55834;50.870;4.606;2022-09-12T10:05:47;100767.97;;;21.71;40.37
68822;BME280;55834;50.870;4.606;2022-09-12T10:11:08;100758.81;;;21.50;40.75
68822;BME280;55834;50.870;4.606;2022-09-12T10:16:25;100751.84;;;21.95;40.02
68822;BME280;55834;50.870;4.606;2022-09-12T10:18:52;100751.31;;;22.14;39.60
68822;BME280;55834;50.870;4.606;2022-09-12T10:21:32;100746.91;;;22.24;39.04
68822;BME280;55834;50.870;4.606;2022-09-12T10:24:05;100742.78;;;21.96;39.35
68822;BME280;55834;50.870;4.606;2022-09-12T10:26:42;100738.41;;;21.71;39.22
68822;BME280;55834;50.870;4.606;2022-09-12T10:29:16;100735.72;;;21.71;39.26
68822;BME280;55834;50.870;4.606;2022-09-12T10:31:47;100736.19;;;21.65;40.77
68822;BME280;55834;50.870;4.606;2022-09-12T10:34:21;100739.16;;;21.97;39.11
68822;BME280;55834;50.870;4.606;2022-09-12T10:36:51;100727.34;;;22.22;38.12
68822;BME280;55834;50.870;4.606;2022-09-12T10:39:19;100732.50;;;22.25;38.34
68822;BME280;55834;50.870;4.606;2022-09-12T10:41:44;100733.03;;;21.95;39.61
68822;BME280;55834;50.870;4.606;2022-09-12T10:44:26;100728.31;;;22.21;38.75
68822;BME280;55834;50.870;4.606;2022-09-12T10:46:52;100723.56;;;22.36;37.28
68822;BME280;55834;50.870;4.606;2022-09-12T10:51:44;100713.81;;;21.53;39.46
68822;BME280;55834;50.870;4.606;2022-09-12T10:54:10;100717.22;;;21.55;39.56
68822;BME280;55834;50.870;4.606;2022-09-12T10:56:56;100717.06;;;21.81;38.63
68822;BME280;55834;50.870;4.606;2022-09-12T10:59:37;100722.59;;;22.26;37.96
68822;BME280;55834;50.870;4.606;2022-09-12T11:02:28;100713.19;;;22.32;37.30
68822;BME280;55834;50.870;4.606;2022-09-12T11:13:05;100717.78;;;22.07;39.10
68822;BME280;55834;50.870;4.606;2022-09-12T11:20:51;100693.78;;;22.84;36.53
68822;BME280;55834;50.870;4.606;2022-09-12T11:25:58;100698.41;;;22.93;36.65
68822;BME280;55834;50.870;4.606;2022-09-12T11:31:44;100686.28;;;22.99;36.60
68822;BME280;55834;50.870;4.606;2022-09-12T11:34:45;100690.34;;;22.93;35.73
68822;BME280;55834;50.870;4.606;2022-09-12T11:40:04;100689.34;;;22.83;36.13
68822;BME280;55834;50.870;4.606;2022-09-12T11:42:37;100686.28;;;22.20;34.63
68822;BME280;55834;50.870;4.606;2022-09-12T11:45:16;100682.03;;;22.63;36.65
68822;BME280;55834;50.870;4.606;2022-09-12T11:47:47;100687.28;;;22.42;36.28
68822;BME280;55834;50.870;4.606;2022-09-12T11:50:20;100688.50;;;22.94;35.25
68822;BME280;55834;50.870;4.606;2022-09-12T11:52:49;100688.69;;;23.13;34.50
68822;BME280;55834;50.870;4.606;2022-09-12T11:55:18;100687.47;;;23.29;34.28
68822;BME280;55834;50.870;4.606;2022-09-12T11:57:52;100689.75;;;22.79;34.87
68822;BME280;55834;50.870;4.606;2022-09-12T12:00:40;100691.53;;;22.33;36.36
68822;BME280;55834;50.870;4.606;2022-09-12T12:03:08;100679.78;;;23.02;35.57
68822;BME280;55834;50.870;4.606;2022-09-12T12:05:43;100678.47;;;21.82;35.12
68822;BME280;55834;50.870;4.606;2022-09-12T12:08:16;100675.59;;;21.96;34.93
68822;BME280;55834;50.870;4.606;2022-09-12T12:13:21;100671.00;;;23.43;33.33
68822;BME280;55834;50.870;4.606;2022-09-12T12:15:54;100678.00;;;23.67;33.79
68822;BME280;55834;50.870;4.606;2022-09-12T12:18:24;100673.59;;;23.66;32.42
68822;BME280;55834;50.870;4.606;2022-09-12T12:20:52;100675.78;;;22.85;34.48
68822;BME280;55834;50.870;4.606;2022-09-12T12:23:30;100670.31;;;22.75;34.88
68822;BME280;55834;50.870;4.606;2022-09-12T12:25:58;100663.91;;;22.87;35.99
68822;BME280;55834;50.870;4.606;2022-09-12T12:31:09;100661.22;;;22.99;32.70
68822;BME280;55834;50.870;4.606;2022-09-12T12:36:27;100652.44;;;23.82;32.66
68822;BME280;55834;50.870;4.606;2022-09-12T12:38:53;100654.06;;;23.09;34.01
68822;BME280;55834;50.870;4.606;2022-09-12T12:43:49;100638.97;;;24.03;34.46
68822;BME280;55834;50.870;4.606;2022-09-12T12:46:19;100643.53;;;23.49;34.91
68822;BME280;55834;50.870;4.606;2022-09-12T12:49:03;100644.91;;;23.97;33.64
68822;BME280;55834;50.870;4.606;2022-09-12T12:51:39;100644.00;;;24.17;34.16
68822;BME280;55834;50.870;4.606;2022-09-12T13:02:30;100642.72;;;23.37;30.79
68822;BME280;55834;50.870;4.606;2022-09-12T13:04:59;100637.75;;;23.33;32.66
68822;BME280;55834;50.870;4.606;2022-09-12T13:07:35;100639.63;;;23.95;32.55
68822;BME280;55834;50.870;4.606;2022-09-12T13:10:02;100635.31;;;23.83;33.55
68822;BME280;55834;50.870;4.606;2022-09-12T13:12:43;100642.03;;;23.77;33.92
68822;BME280;55834;50.870;4.606;2022-09-12T13:15:49;100648.22;;;24.10;32.59
68822;BME280;55834;50.870;4.606;2022-09-12T13:18:46;100640.50;;;24.26;32.85
68822;BME280;55834;50.870;4.606;2022-09-12T13:21:21;100626.09;;;24.16;32.58
68822;BME280;55834;50.870;4.606;2022-09-12T13:24:04;100614.59;;;23.83;33.50
68822;BME280;55834;50.870;4.606;2022-09-12T13:26:44;100609.59;;;23.79;33.13
68822;BME280;55834;50.870;4.606;2022-09-12T13:29:21;100604.22;;;24.09;33.07
68822;BME280;55834;50.870;4.606;2022-09-12T13:31:50;100592.06;;;24.25;32.66
68822;BME280;55834;50.870;4.606;2022-09-12T13:34:47;100587.69;;;24.34;32.25
68822;BME280;55834;50.870;4.606;2022-09-12T13:40:21;100587.22;;;24.49;33.11
68822;BME280;55834;50.870;4.606;2022-09-12T13:43:12;100594.34;;;24.20;33.37
68822;BME280;55834;50.870;4.606;2022-09-12T13:45:44;100592.09;;;23.94;32.35
68822;BME280;55834;50.870;4.606;2022-09-12T13:48:17;100587.50;;;23.85;33.36
68822;BME280;55834;50.870;4.606;2022-09-12T13:50:53;100590.00;;;24.07;32.46
68822;BME280;55834;50.870;4.606;2022-09-12T13:53:23;100579.13;;;24.49;31.99
68822;BME280;55834;50.870;4.606;2022-09-12T13:55:56;100571.22;;;24.67;31.83
68822;BME280;55834;50.870;4.606;2022-09-12T13:58:28;100572.66;;;24.71;30.39
68822;BME280;55834;50.870;4.606;2022-09-12T14:06:22;100573.91;;;24.58;33.35
68822;BME280;55834;50.870;4.606;2022-09-12T14:08:49;100573.63;;;24.20;32.27
68822;BME280;55834;50.870;4.606;2022-09-12T14:11:25;100575.38;;;24.31;32.44
68822;BME280;55834;50.870;4.606;2022-09-12T14:13:51;100572.63;;;24.62;30.87
68822;BME280;55834;50.870;4.606;2022-09-12T14:16:18;100566.69;;;24.78;31.58
68822;BME280;55834;50.870;4.606;2022-09-12T14:18:46;100562.09;;;24.68;31.89
68822;BME280;55834;50.870;4.606;2022-09-12T14:23:54;100564.13;;;24.76;30.86
68822;BME280;55834;50.870;4.606;2022-09-12T14:26:22;100566.28;;;24.42;32.33
68822;BME280;55834;50.870;4.606;2022-09-12T14:28:48;100565.25;;;24.54;31.43
68822;BME280;55834;50.870;4.606;2022-09-12T14:31:23;100563.91;;;24.08;33.08
68822;BME280;55834;50.870;4.606;2022-09-12T14:34:11;100555.22;;;24.04;33.90
68822;BME280;55834;50.870;4.606;2022-09-12T14:36:52;100552.19;;;23.25;33.42
68822;BME280;55834;50.870;4.606;2022-09-12T14:39:40;100539.97;;;24.24;31.93
68822;BME280;55834;50.870;4.606;2022-09-12T14:42:16;100533.72;;;24.24;31.67
68822;BME280;55834;50.870;4.606;2022-09-12T14:44:53;100524.41;;;24.38;32.32
68822;BME280;55834;50.870;4.606;2022-09-12T14:47:23;100536.34;;;24.45;30.57
68822;BME280;55834;50.870;4.606;2022-09-12T14:49:50;100538.81;;;24.77;31.05
68822;BME280;55834;50.870;4.606;2022-09-12T14:52:31;100533.31;;;24.98;30.72
68822;BME280;55834;50.870;4.606;2022-09-12T14:57:41;100527.31;;;24.94;29.89
68822;BME280;55834;50.870;4.606;2022-09-12T15:02:37;100526.22;;;25.07;30.46
68822;BME280;55834;50.870;4.606;2022-09-12T15:07:36;100525.38;;;25.06;30.32
68822;BME280;55834;50.870;4.606;2022-09-12T15:10:22;100515.22;;;24.60;30.48
68822;BME280;55834;50.870;4.606;2022-09-12T15:13:02;100525.13;;;24.40;30.75
68822;BME280;55834;50.870;4.606;2022-09-12T15:15:28;100515.97;;;24.81;30.86
68822;BME280;55834;50.870;4.606;2022-09-12T15:17:53;100502.88;;;24.96;30.07
68822;BME280;55834;50.870;4.606;2022-09-12T15:20:19;100502.91;;;25.06;31.02
68822;BME280;55834;50.870;4.606;2022-09-12T15:22:44;100495.78;;;24.85;30.55
68822;BME280;55834;50.870;4.606;2022-09-12T15:25:11;100494.38;;;24.21;31.39